Terminal Aerodrome Forecast
Issued by NWS Louisville, KY

Home | Current Version | Previous Version | Text Only | Print | Product List | Glossary On
Versions: 1 2 3 4 5 6 7 8 9 10 11 12 13 14 15 16 17 18 19 20 21 22 23 24 25 26 27 28 29 30 31 32 33 34
000
FTUS43 KLMK 250148 AAA
TAFLEX
TAF AMD
KLEX 250148Z 2502/2524 VRB05KT P6SM VCSH BKN070
     FM250230 33010G18KT 3SM SHRA VCTS BKN045CB
     FM250400 VRB05KT P6SM VCSH OVC050
     FM251200 21006KT 6SM -SHRA BR OVC035
      TEMPO 2514/2518 3SM -SHRA BR BKN027
     FM252100 19007KT 5SM -SHRA BR VCTS OVC035CB=

USA.gov is the U.S. government's official web portal to all federal, state and local government web resources and services.